createdAt,value
2018-07-13T00:00:03.391Z,7.42
2018-07-13T00:02:31.324Z,7.55
2018-07-13T00:04:59.677Z,8.63
2018-07-13T00:07:28.019Z,8.08
2018-07-13T00:09:56.380Z,7.47
2018-07-13T00:12:24.672Z,8.15
2018-07-13T00:15:03.570Z,7.85
2018-07-13T00:17:31.855Z,7.72
2018-07-13T00:20:00.216Z,8.08
2018-07-13T00:22:28.492Z,8.18
2018-07-13T00:24:56.771Z,7.85
2018-07-13T00:27:25.104Z,7.78
2018-07-13T00:29:53.394Z,8.68
2018-07-13T00:32:21.722Z,9.28
2018-07-13T00:34:50.135Z,9.43
2018-07-13T00:37:18.698Z,9.65
2018-07-13T00:39:47.092Z,8.70
2018-07-13T00:42:15.457Z,8.88
2018-07-13T00:44:43.793Z,9.33
2018-07-13T00:47:12.117Z,8.80
2018-07-13T00:49:40.400Z,8.35
2018-07-13T00:52:08.719Z,9.15
2018-07-13T00:54:36.743Z,9.25
2018-07-13T00:57:05.071Z,9.40
2018-07-13T00:59:33.394Z,9.53
2018-07-13T01:02:01.722Z,9.80
2018-07-13T01:04:30.026Z,10.05
2018-07-13T01:06:58.376Z,9.98
2018-07-13T01:09:26.740Z,9.98
2018-07-13T01:11:55.042Z,9.73
2018-07-13T01:14:23.395Z,9.78
2018-07-13T01:16:51.687Z,10.48
2018-07-13T01:19:20.019Z,10.38
2018-07-13T01:21:48.408Z,10.95
2018-07-13T01:24:16.786Z,10.95
2018-07-13T01:26:45.102Z,11.08
2018-07-13T01:29:13.121Z,11.25
2018-07-13T01:31:41.399Z,11.10
2018-07-13T01:34:09.706Z,11.33
2018-07-13T01:36:38.000Z,11.95
2018-07-13T01:39:09.102Z,11.70
2018-07-13T01:41:37.413Z,11.60
2018-07-13T01:44:06.039Z,10.88
2018-07-13T01:46:34.375Z,12.30
2018-07-13T01:49:02.726Z,11.68
2018-07-13T01:51:31.094Z,10.95
2018-07-13T01:53:59.476Z,11.68
2018-07-13T01:56:27.785Z,12.10
2018-07-13T01:58:56.201Z,12.78
2018-07-13T02:01:24.511Z,12.43
2018-07-13T02:03:52.876Z,11.73
2018-07-13T02:06:21.163Z,13.60
2018-07-13T02:08:52.163Z,12.13
2018-07-13T02:11:20.580Z,11.90
2018-07-13T02:13:49.147Z,12.45
2018-07-13T02:16:17.477Z,12.05
2018-07-13T02:18:45.770Z,12.55
2018-07-13T02:21:14.058Z,13.48
2018-07-13T02:23:42.336Z,13.83
2018-07-13T02:26:10.675Z,12.45
2018-07-13T02:28:39.055Z,14.20
2018-07-13T02:31:07.471Z,12.37
2018-07-13T02:33:35.772Z,14.07
2018-07-13T02:36:04.098Z,13.62
2018-07-13T02:38:32.420Z,14.28
2018-07-13T02:41:00.739Z,13.50
2018-07-13T02:43:29.035Z,13.62
2018-07-13T02:45:57.314Z,12.07
2018-07-13T02:48:25.602Z,14.83
2018-07-13T02:50:53.928Z,13.25
2018-07-13T02:53:22.223Z,14.00
2018-07-13T02:55:50.572Z,15.00
2018-07-13T02:58:18.876Z,13.83
2018-07-13T03:00:47.165Z,14.80
2018-07-13T03:03:15.720Z,14.70
2018-07-13T03:05:44.066Z,13.03
2018-07-13T03:08:12.492Z,14.13
2018-07-13T03:10:40.801Z,13.65
2018-07-13T03:13:09.214Z,14.03
2018-07-13T03:15:37.490Z,14.33
2018-07-13T03:18:05.788Z,14.73
2018-07-13T03:20:34.077Z,14.00
2018-07-13T03:23:02.399Z,12.95
2018-07-13T03:25:30.736Z,12.98
2018-07-13T03:27:59.104Z,13.15
2018-07-13T03:30:27.450Z,12.53
2018-07-13T03:32:55.731Z,12.23
2018-07-13T03:35:24.089Z,12.33
2018-07-13T03:37:52.406Z,12.28
2018-07-13T03:40:20.744Z,11.57
2018-07-13T03:42:49.092Z,12.60
2018-07-13T03:45:17.652Z,12.68
2018-07-13T03:47:46.011Z,12.58
2018-07-13T03:50:14.352Z,13.13
2018-07-13T03:52:42.604Z,12.03
2018-07-13T03:55:10.933Z,11.48
2018-07-13T03:57:39.240Z,12.50
2018-07-13T04:00:07.634Z,12.33
2018-07-13T04:02:35.917Z,11.93
2018-07-13T04:05:04.236Z,12.13
2018-07-13T04:07:32.524Z,11.97
2018-07-13T04:10:00.851Z,11.35
2018-07-13T04:12:29.189Z,11.88
2018-07-13T04:14:57.508Z,11.53
2018-07-13T04:17:25.899Z,11.68
2018-07-13T04:19:54.498Z,11.10
2018-07-13T04:22:22.819Z,11.57
2018-07-13T04:24:51.089Z,12.18
2018-07-13T04:27:19.455Z,11.33
2018-07-13T04:29:47.788Z,10.75
2018-07-13T04:32:16.100Z,11.33
2018-07-13T04:34:44.384Z,11.60
2018-07-13T04:37:12.672Z,10.63
2018-07-13T04:39:41.046Z,11.08
2018-07-13T04:42:09.813Z,11.53
2018-07-13T04:44:38.256Z,10.18
2018-07-13T04:47:06.531Z,11.20
2018-07-13T04:49:34.814Z,11.15
2018-07-13T04:52:03.259Z,10.40
2018-07-13T04:54:32.877Z,9.50
2018-07-13T04:57:01.305Z,10.28
2018-07-13T04:59:29.707Z,10.15
2018-07-13T05:01:58.131Z,9.73
2018-07-13T05:04:26.484Z,10.32
2018-07-13T05:06:55.767Z,10.28
2018-07-13T05:09:24.127Z,10.20
2018-07-13T05:11:52.458Z,10.50
2018-07-13T05:14:20.814Z,11.45
2018-07-13T05:16:49.238Z,10.00
2018-07-13T05:19:17.524Z,11.20
2018-07-13T05:21:45.880Z,11.83
2018-07-13T05:24:14.173Z,10.32
2018-07-13T05:26:42.711Z,11.30
2018-07-13T05:29:11.162Z,13.05
2018-07-13T05:31:39.856Z,10.40
2018-07-13T05:34:08.476Z,13.10
2018-07-13T05:36:36.844Z,11.80
2018-07-13T05:39:08.556Z,14.38
2018-07-13T05:41:37.511Z,12.63
2018-07-13T05:44:05.884Z,12.60
2018-07-13T05:46:34.368Z,14.95
2018-07-13T05:49:02.679Z,10.03
2018-07-13T05:51:31.084Z,12.18
2018-07-13T05:53:59.479Z,13.38
2018-07-13T05:56:27.905Z,12.30
2018-07-13T05:58:56.286Z,12.30
2018-07-13T06:01:24.674Z,13.65
2018-07-13T06:03:53.029Z,12.13
2018-07-13T06:06:21.358Z,11.33
2018-07-13T06:08:49.686Z,11.68
2018-07-13T06:11:17.985Z,11.70
2018-07-13T06:13:46.342Z,10.75
2018-07-13T06:16:14.760Z,10.95
2018-07-13T06:18:43.163Z,11.20
2018-07-13T06:21:11.502Z,12.18
2018-07-13T06:23:39.865Z,12.33
2018-07-13T06:26:08.271Z,11.65
2018-07-13T06:28:36.581Z,13.75
2018-07-13T06:31:04.873Z,11.65
2018-07-13T06:33:33.166Z,10.80
2018-07-13T06:36:01.489Z,10.53
2018-07-13T06:38:30.316Z,10.85
2018-07-13T06:40:58.697Z,10.43
2018-07-13T06:43:27.018Z,10.05
2018-07-13T06:45:55.350Z,10.78
2018-07-13T06:48:23.660Z,10.82
2018-07-13T06:50:51.979Z,9.40
2018-07-13T06:53:20.366Z,10.80
2018-07-13T06:55:50.313Z,9.70
2018-07-13T06:58:30.509Z,9.83
2018-07-13T07:01:04.708Z,10.10
2018-07-13T07:03:34.576Z,9.75
2018-07-13T07:06:08.410Z,10.60
2018-07-13T07:08:38.202Z,11.38
2018-07-13T07:11:06.580Z,10.70
2018-07-13T07:13:36.976Z,10.70
2018-07-13T07:16:05.598Z,10.53
2018-07-13T07:18:34.012Z,9.88
2018-07-13T07:21:02.308Z,10.55
2018-07-13T07:23:31.262Z,9.75
2018-07-13T07:26:00.440Z,9.98
2018-07-13T07:28:28.842Z,10.10
2018-07-13T07:30:57.833Z,9.55
2018-07-13T07:33:26.188Z,9.80
2018-07-13T07:35:54.609Z,9.63
2018-07-13T07:38:22.963Z,10.25
2018-07-13T07:40:51.259Z,9.95
2018-07-13T07:43:20.121Z,9.48
2018-07-13T07:45:48.461Z,9.28
2018-07-13T07:48:16.807Z,8.55
2018-07-13T07:50:45.129Z,8.30
2018-07-13T07:53:13.419Z,8.58
2018-07-13T07:55:41.758Z,8.68
2018-07-13T07:58:10.114Z,8.88
2018-07-13T08:00:38.922Z,7.60
2018-07-13T08:03:07.280Z,7.35
2018-07-13T08:05:35.682Z,7.58
2018-07-13T08:08:04.114Z,8.35
2018-07-13T08:10:32.401Z,7.17
2018-07-13T08:13:01.089Z,7.22
2018-07-13T08:15:29.448Z,8.15
2018-07-13T08:17:57.858Z,6.97
2018-07-13T08:20:29.091Z,7.03
2018-07-13T08:23:01.077Z,7.40
2018-07-13T08:25:30.198Z,7.90
2018-07-13T08:28:00.676Z,8.48
2018-07-13T08:30:38.375Z,7.60
2018-07-13T08:33:06.714Z,8.53
2018-07-13T08:35:35.052Z,7.53
2018-07-13T08:38:03.495Z,7.80
2018-07-13T08:40:31.851Z,7.55
2018-07-13T08:43:00.160Z,7.25
2018-07-13T08:45:28.485Z,6.83
2018-07-13T08:47:57.031Z,8.65
2018-07-13T08:50:25.404Z,7.12
2018-07-13T08:52:54.077Z,7.78
2018-07-13T08:55:22.415Z,7.70
2018-07-13T08:57:50.749Z,7.30
2018-07-13T09:00:19.431Z,7.17
2018-07-13T09:02:47.816Z,7.08
2018-07-13T09:05:16.142Z,7.15
2018-07-13T09:07:44.603Z,7.15
2018-07-13T09:10:13.664Z,6.65
2018-07-13T09:12:42.862Z,6.58
2018-07-13T09:15:12.818Z,6.05
2018-07-13T09:17:41.807Z,6.03
2018-07-13T09:20:11.820Z,6.72
2018-07-13T09:22:41.351Z,6.30
2018-07-13T09:25:10.368Z,6.20
2018-07-13T09:27:38.990Z,6.60
2018-07-13T09:30:07.872Z,6.72
2018-07-13T09:32:36.241Z,7.37
2018-07-13T09:35:04.656Z,6.65
2018-07-13T09:37:33.631Z,7.10
2018-07-13T09:40:02.001Z,6.40
2018-07-13T09:42:30.328Z,5.83
2018-07-13T09:44:58.711Z,5.65
2018-07-13T09:47:34.854Z,5.95
2018-07-13T09:50:04.668Z,6.58
2018-07-13T09:52:32.999Z,4.95
2018-07-13T09:55:01.335Z,5.75
2018-07-13T09:57:29.590Z,4.97
2018-07-13T09:59:57.855Z,5.78
2018-07-13T10:02:26.136Z,5.20
2018-07-13T10:04:54.536Z,4.50
2018-07-13T10:07:22.914Z,5.12
2018-07-13T10:09:51.252Z,5.42
2018-07-13T10:12:19.681Z,5.53
2018-07-13T10:14:47.937Z,6.20
2018-07-13T10:17:16.216Z,5.08
2018-07-13T10:19:44.606Z,5.60
2018-07-13T10:22:14.829Z,5.42
2018-07-13T10:24:43.871Z,4.80
2018-07-13T10:27:13.725Z,6.22
2018-07-13T10:29:46.468Z,4.72
2018-07-13T10:32:14.803Z,5.10
2018-07-13T10:34:43.707Z,4.92
2018-07-13T10:37:12.072Z,5.10
2018-07-13T10:39:40.343Z,4.87
2018-07-13T10:42:08.682Z,4.92
2018-07-13T10:44:36.998Z,4.80
2018-07-13T10:47:05.275Z,4.92
2018-07-13T10:49:33.585Z,5.15
2018-07-13T10:52:01.944Z,4.70
2018-07-13T10:54:30.265Z,5.28
2018-07-13T10:56:58.656Z,4.50
2018-07-13T10:59:27.011Z,4.55
2018-07-13T11:01:55.376Z,4.28
2018-07-13T11:04:23.651Z,4.87
2018-07-13T11:06:51.950Z,5.42
2018-07-13T11:09:20.297Z,5.10
2018-07-13T11:11:48.577Z,5.10
2018-07-13T11:14:16.874Z,4.83
2018-07-13T11:16:45.176Z,5.35
2018-07-13T11:19:13.424Z,4.58
2018-07-13T11:21:41.781Z,4.53
2018-07-13T11:24:10.094Z,4.22
2018-07-13T11:26:38.390Z,3.55
2018-07-13T11:29:06.802Z,3.77
2018-07-13T11:31:35.229Z,3.90
2018-07-13T11:34:03.549Z,4.58
2018-07-13T11:36:31.841Z,4.22
2018-07-13T11:39:00.124Z,3.62
2018-07-13T11:41:28.447Z,3.67
2018-07-13T11:43:56.783Z,4.37
2018-07-13T11:46:25.052Z,4.70
2018-07-13T11:48:53.352Z,5.03
2018-07-13T11:51:21.647Z,5.30
2018-07-13T11:53:50.230Z,4.33
2018-07-13T11:56:18.536Z,5.12
2018-07-13T11:58:46.831Z,4.45
2018-07-13T12:01:15.178Z,4.30
2018-07-13T12:03:43.261Z,3.92
2018-07-13T12:06:11.539Z,4.33
2018-07-13T12:08:39.870Z,3.98
2018-07-13T12:11:08.313Z,4.42
2018-07-13T12:13:36.607Z,3.58
2018-07-13T12:16:04.916Z,3.37
2018-07-13T12:18:33.164Z,3.33
2018-07-13T12:21:01.538Z,3.60
2018-07-13T12:23:29.823Z,3.72
2018-07-13T12:25:58.142Z,3.52
2018-07-13T12:28:26.400Z,3.70
2018-07-13T12:30:54.683Z,3.12
2018-07-13T12:33:22.944Z,3.22
2018-07-13T12:35:52.121Z,3.45
2018-07-13T12:38:20.384Z,3.30
2018-07-13T12:40:48.689Z,3.65
2018-07-13T12:43:17.060Z,2.70
2018-07-13T12:45:45.364Z,3.02
2018-07-13T12:48:13.801Z,3.65
2018-07-13T12:50:42.167Z,3.20
2018-07-13T12:53:10.525Z,3.30
2018-07-13T12:55:38.836Z,2.95
2018-07-13T12:58:07.115Z,3.55
2018-07-13T13:00:35.464Z,3.60
2018-07-13T13:03:03.763Z,3.92
2018-07-13T13:05:32.144Z,3.10
2018-07-13T13:08:00.446Z,3.60
2018-07-13T13:10:28.729Z,3.80
2018-07-13T13:12:57.093Z,3.42
2018-07-13T13:15:25.549Z,2.80
2018-07-13T13:17:53.816Z,3.10
2018-07-13T13:20:22.132Z,3.45
2018-07-13T13:23:03.592Z,2.90
2018-07-13T13:25:32.089Z,3.17
2018-07-13T13:28:00.387Z,2.85
2018-07-13T13:30:28.674Z,3.08
2018-07-13T13:32:56.989Z,2.77
2018-07-13T13:35:25.413Z,3.20
2018-07-13T13:37:55.957Z,3.08
2018-07-13T13:40:24.299Z,2.87
2018-07-13T13:42:52.796Z,2.92
2018-07-13T13:45:21.721Z,2.92
2018-07-13T13:47:49.884Z,2.72
2018-07-13T13:50:18.215Z,3.08
2018-07-13T13:52:46.555Z,2.62
2018-07-13T13:55:15.076Z,2.72
2018-07-13T13:57:43.412Z,2.40
2018-07-13T14:00:11.702Z,2.50
2018-07-13T14:02:40.034Z,2.70
2018-07-13T14:05:08.391Z,2.55
2018-07-13T14:07:36.632Z,3.27
2018-07-13T14:10:05.052Z,3.15
2018-07-13T14:12:33.312Z,2.47
2018-07-13T14:15:01.769Z,2.98
2018-07-13T14:17:30.073Z,3.27
2018-07-13T14:19:58.911Z,2.87
2018-07-13T14:22:27.042Z,2.55
2018-07-13T14:24:57.253Z,2.77
2018-07-13T14:27:25.555Z,3.08
2018-07-13T14:29:53.950Z,2.98
2018-07-13T14:32:22.222Z,2.83
2018-07-13T14:34:50.554Z,3.12
2018-07-13T14:37:18.860Z,2.77
2018-07-13T14:39:47.225Z,2.47
2018-07-13T14:42:15.530Z,3.15
2018-07-13T14:44:43.836Z,2.83
2018-07-13T14:47:12.200Z,2.47
2018-07-13T14:49:40.500Z,2.92
2018-07-13T14:52:08.884Z,2.60
2018-07-13T14:54:37.202Z,2.72
2018-07-13T14:57:05.554Z,2.50
2018-07-13T14:59:33.994Z,2.35
2018-07-13T15:02:02.413Z,2.67
2018-07-13T15:04:30.719Z,2.77
2018-07-13T15:06:59.008Z,2.40
2018-07-13T15:09:27.346Z,3.25
2018-07-13T15:11:55.732Z,2.67
2018-07-13T15:14:24.034Z,2.60
2018-07-13T15:16:52.383Z,2.45
2018-07-13T15:19:20.676Z,2.25
2018-07-13T15:21:49.015Z,2.52
2018-07-13T15:24:17.344Z,2.40
2018-07-13T15:26:45.632Z,2.25
2018-07-13T15:29:13.944Z,2.60
2018-07-13T15:31:42.278Z,2.25
2018-07-13T15:34:10.560Z,2.65
2018-07-13T15:36:39.436Z,2.50
2018-07-13T15:39:07.971Z,2.27
2018-07-13T15:41:37.204Z,2.25
2018-07-13T15:44:05.565Z,1.92
2018-07-13T15:46:33.853Z,2.25
2018-07-13T15:49:02.280Z,2.30
2018-07-13T15:51:30.589Z,3.08
2018-07-13T15:53:58.878Z,2.20
2018-07-13T15:56:27.192Z,2.25
2018-07-13T15:58:55.517Z,2.15
2018-07-13T16:01:23.895Z,2.30
2018-07-13T16:03:52.176Z,2.42
2018-07-13T16:06:20.494Z,2.67
2018-07-13T16:08:48.752Z,2.60
2018-07-13T16:11:17.057Z,2.70
2018-07-13T16:13:45.386Z,2.80
2018-07-13T16:16:13.753Z,2.62
2018-07-13T16:18:42.101Z,4.50
2018-07-13T16:21:10.392Z,2.83
2018-07-13T16:23:38.658Z,2.87
2018-07-13T16:26:06.675Z,2.52
2018-07-13T16:28:35.021Z,2.67
2018-07-13T16:31:03.444Z,2.47
2018-07-13T16:33:31.697Z,2.58
2018-07-13T16:36:00.044Z,2.40
2018-07-13T16:38:28.309Z,2.50
2018-07-13T16:40:56.593Z,2.33
2018-07-13T16:43:24.951Z,2.80
2018-07-13T16:45:53.339Z,3.08
2018-07-13T16:48:21.498Z,2.58
2018-07-13T16:50:49.911Z,2.30
2018-07-13T16:53:17.887Z,2.80
2018-07-13T16:55:46.152Z,2.90
2018-07-13T16:58:14.416Z,2.50
2018-07-13T17:00:42.762Z,2.75
2018-07-13T17:03:11.033Z,2.98
2018-07-13T17:05:39.343Z,2.20
2018-07-13T17:08:07.673Z,2.30
2018-07-13T17:10:35.926Z,2.75
2018-07-13T17:13:04.283Z,2.62
2018-07-13T17:15:32.556Z,2.37
2018-07-13T17:18:00.884Z,2.22
2018-07-13T17:20:29.511Z,2.52
2018-07-13T17:22:57.707Z,2.80
2018-07-13T17:25:26.025Z,2.92
2018-07-13T17:27:54.332Z,2.60
2018-07-13T17:30:22.632Z,2.83
2018-07-13T17:32:50.963Z,2.33
2018-07-13T17:35:19.291Z,2.40
2018-07-13T17:37:47.583Z,2.92
2018-07-13T17:40:16.107Z,2.62
2018-07-13T17:42:44.417Z,2.52
2018-07-13T17:45:12.476Z,3.83
2018-07-13T17:47:40.872Z,2.92
2018-07-13T17:50:09.149Z,3.55
2018-07-13T17:52:37.448Z,2.70
2018-07-13T17:55:05.791Z,2.45
2018-07-13T17:57:33.871Z,2.42
2018-07-13T18:00:02.173Z,2.45
2018-07-13T18:02:31.155Z,3.45
2018-07-13T18:04:59.505Z,3.00
2018-07-13T18:10:08.475Z,2.92
2018-07-13T18:12:36.772Z,2.90
2018-07-13T18:15:05.907Z,3.30
2018-07-13T18:17:34.239Z,3.52
2018-07-13T18:20:02.631Z,2.47
2018-07-13T18:22:30.908Z,3.12
2018-07-13T18:24:59.233Z,2.70
2018-07-13T18:27:27.574Z,2.62
2018-07-13T18:29:55.908Z,2.52
2018-07-13T18:32:24.271Z,2.50
2018-07-13T18:34:52.789Z,3.02
2018-07-13T18:37:21.275Z,2.55
2018-07-13T18:39:49.840Z,3.00
2018-07-13T18:42:18.132Z,2.50
2018-07-13T18:44:46.428Z,2.58
2018-07-13T18:47:14.746Z,2.67
2018-07-13T18:49:43.049Z,2.10
2018-07-13T18:52:12.487Z,3.05
2018-07-13T18:54:40.835Z,2.70
2018-07-13T18:57:09.183Z,2.22
2018-07-13T18:59:37.543Z,2.25
2018-07-13T19:02:06.354Z,2.27
2018-07-13T19:04:34.816Z,2.20
2018-07-13T19:07:03.128Z,2.67
2018-07-13T19:09:31.507Z,2.77
2018-07-13T19:11:59.841Z,2.37
2018-07-13T19:14:28.412Z,2.70
2018-07-13T19:16:56.792Z,3.47
2018-07-13T19:19:25.123Z,3.10
2018-07-13T19:21:53.445Z,2.90
2018-07-13T19:24:21.764Z,2.90
2018-07-13T19:26:50.110Z,2.60
2018-07-13T19:29:18.573Z,2.50
2018-07-13T19:31:48.059Z,2.67
2018-07-13T19:34:16.460Z,3.08
2018-07-13T19:36:44.780Z,3.45
2018-07-13T19:39:13.301Z,2.95
2018-07-13T19:41:41.634Z,3.30
2018-07-13T19:44:09.931Z,3.62
2018-07-13T19:46:38.295Z,3.27
2018-07-13T19:49:06.512Z,3.45
2018-07-13T19:51:35.006Z,3.77
2018-07-13T19:54:03.277Z,3.52
2018-07-13T19:56:31.579Z,3.47
2018-07-13T19:58:59.869Z,3.80
2018-07-13T20:01:28.200Z,3.70
2018-07-13T20:03:56.527Z,4.40
2018-07-13T20:06:24.912Z,3.75
2018-07-13T20:08:53.186Z,3.80
2018-07-13T20:11:21.524Z,4.00
2018-07-13T20:13:49.816Z,3.60
2018-07-13T20:16:18.191Z,3.72
2018-07-13T20:18:46.520Z,4.08
2018-07-13T20:21:14.887Z,3.70
2018-07-13T20:23:43.189Z,3.87
2018-07-13T20:26:11.529Z,3.77
2018-07-13T20:28:39.878Z,3.85
2018-07-13T20:31:08.312Z,4.17
2018-07-13T20:33:36.756Z,3.90
2018-07-13T20:36:04.797Z,4.37
2018-07-13T20:38:33.104Z,3.50
2018-07-13T20:41:01.456Z,4.10
2018-07-13T20:43:29.896Z,4.28
2018-07-13T20:45:58.253Z,3.22
2018-07-13T20:48:26.600Z,4.00
2018-07-13T20:50:54.917Z,3.80
2018-07-13T20:53:23.229Z,4.05
2018-07-13T20:55:51.558Z,3.72
2018-07-13T20:58:19.603Z,4.45
2018-07-13T21:00:47.933Z,4.08
2018-07-13T21:03:16.414Z,4.60
2018-07-13T21:05:44.764Z,3.75
2018-07-13T21:08:14.088Z,4.15
2018-07-13T21:10:42.569Z,3.98
2018-07-13T21:13:10.912Z,4.28
2018-07-13T21:15:39.233Z,3.95
2018-07-13T21:18:07.496Z,4.15
2018-07-13T21:20:35.983Z,4.45
2018-07-13T21:23:04.320Z,4.17
2018-07-13T21:25:32.643Z,4.60
2018-07-13T21:28:00.928Z,4.30
2018-07-13T21:30:29.251Z,4.58
2018-07-13T21:32:57.545Z,4.72
2018-07-13T21:35:25.913Z,4.65
2018-07-13T21:37:54.331Z,5.47
2018-07-13T21:40:22.668Z,5.00
2018-07-13T21:42:51.037Z,5.00
2018-07-13T21:45:19.442Z,4.72
2018-07-13T21:47:47.812Z,5.33
2018-07-13T21:50:16.072Z,4.40
2018-07-13T21:52:44.332Z,4.55
2018-07-13T21:55:12.643Z,4.58
2018-07-13T21:57:40.941Z,4.45
2018-07-13T22:00:09.251Z,4.55
2018-07-13T22:02:37.555Z,4.50
2018-07-13T22:05:05.949Z,4.15
2018-07-13T22:07:34.216Z,4.30
2018-07-13T22:10:02.509Z,4.60
2018-07-13T22:12:30.844Z,4.22
2018-07-13T22:14:59.327Z,4.40
2018-07-13T22:17:27.633Z,4.67
2018-07-13T22:19:58.182Z,4.55
2018-07-13T22:22:26.474Z,4.80
2018-07-13T22:24:54.794Z,4.30
2018-07-13T22:27:23.102Z,4.12
2018-07-13T22:29:51.406Z,4.80
2018-07-13T22:32:19.731Z,4.72
2018-07-13T22:34:48.037Z,4.78
2018-07-13T22:37:16.387Z,4.58
2018-07-13T22:39:44.712Z,4.97
2018-07-13T22:42:12.990Z,4.97
2018-07-13T22:44:41.310Z,5.05
2018-07-13T22:47:09.589Z,4.75
2018-07-13T22:49:37.944Z,4.80
2018-07-13T22:52:06.365Z,5.75
2018-07-13T22:54:34.653Z,4.50
2018-07-13T22:57:03.037Z,4.33
2018-07-13T22:59:31.355Z,5.12
2018-07-13T23:01:59.667Z,4.90
2018-07-13T23:04:27.985Z,4.97
2018-07-13T23:06:56.485Z,5.00
2018-07-13T23:09:24.772Z,5.50
2018-07-13T23:11:53.102Z,5.70
2018-07-13T23:14:21.439Z,5.12
2018-07-13T23:16:49.931Z,5.35
2018-07-13T23:19:18.214Z,6.15
2018-07-13T23:21:46.562Z,5.67
2018-07-13T23:24:14.925Z,6.35
2018-07-13T23:26:43.229Z,5.85
2018-07-13T23:29:11.520Z,6.22
2018-07-13T23:31:40.003Z,6.15
2018-07-13T23:34:08.302Z,6.87
2018-07-13T23:36:36.653Z,5.80
2018-07-13T23:39:05.654Z,6.53
2018-07-13T23:41:33.992Z,6.55
2018-07-13T23:44:02.269Z,6.58
2018-07-13T23:46:30.584Z,7.12
2018-07-13T23:48:58.930Z,6.65
2018-07-13T23:51:27.202Z,7.17
2018-07-13T23:53:55.510Z,7.30
2018-07-13T23:56:23.865Z,7.40
2018-07-13T23:58:52.239Z,7.65
